Time;durP1;ratioP1;P1;durP2;ratioP2;P2;SDS_P1;SDS_P2;PMS_P1;PMS_P2;Temp;Humidity;BMP_temperature;BMP_pressure;BME280_temperature;BME280_humidity;BME280_pressure;Samples;Min_cycle;Max_cycle;Signal;HPM_P1;HPM_P2
2022/09/24 00:01:17;;;;;;;4.20;2.55;;;;;;;28.85;34.42;101057.06;5097018;28;20447;-53
2022/09/24 00:03:49;;;;;;;3.28;1.67;;;;;;;28.33;35.68;101051.50;5077193;28;20440;-54
2022/09/24 00:06:17;;;;;;;5.10;2.13;;;;;;;28.42;36.38;101044.84;5089921;28;20027;-54
2022/09/24 00:08:49;;;;;;;5.93;2.20;;;;;;;28.45;36.16;101048.94;5091874;28;20476;-53
2022/09/24 00:11:18;;;;;;;5.00;2.17;;;;;;;28.29;36.63;101040.28;5092522;28;20103;-54
2022/09/24 00:13:44;;;;;;;4.68;2.15;;;;;;;28.13;37.39;101044.59;5092453;28;20416;-54
2022/09/24 00:16:13;;;;;;;5.35;1.85;;;;;;;28.08;38.32;101040.06;5091057;28;20036;-52
2022/09/24 00:18:40;;;;;;;7.03;2.20;;;;;;;27.82;39.55;101047.44;5091857;28;20522;-54
2022/09/24 00:21:25;;;;;;;5.93;2.42;;;;;;;27.68;40.87;101041.97;5083680;28;20048;-52
2022/09/24 00:23:56;;;;;;;8.13;2.15;;;;;;;27.58;41.81;101042.25;5086669;28;20029;-54
2022/09/24 00:29:10;;;;;;;4.97;2.10;;;;;;;27.41;42.67;101042.16;5082743;28;20102;-48
2022/09/24 00:31:36;;;;;;;6.68;2.28;;;;;;;26.64;44.00;101057.69;5073744;28;20384;-50
2022/09/24 00:34:03;;;;;;;8.75;2.50;;;;;;;26.76;44.98;101054.41;5071107;28;20020;-47
2022/09/24 00:36:29;;;;;;;5.40;2.10;;;;;;;26.49;44.57;101058.84;5087915;28;20024;-47
2022/09/24 00:38:58;;;;;;;3.70;2.03;;;;;;;26.57;44.96;101063.59;5085818;28;20504;-57
2022/09/24 00:41:28;;;;;;;6.80;1.95;;;;;;;26.30;44.97;101061.69;5096811;28;20488;-52
2022/09/24 00:43:55;;;;;;;7.60;1.95;;;;;;;26.10;45.23;101064.03;5085524;28;20024;-52
2022/09/24 00:46:41;;;;;;;8.63;2.58;;;;;;;25.82;46.20;101063.19;5091070;28;20028;-51
2022/09/24 00:49:17;;;;;;;5.38;2.05;;;;;;;25.92;46.35;101063.81;5082002;28;20024;-51
2022/09/24 00:51:46;;;;;;;4.90;2.00;;;;;;;25.47;46.55;101074.47;5095696;28;20474;-53
2022/09/24 00:54:17;;;;;;;7.97;2.67;;;;;;;25.60;47.06;101067.41;5112336;28;20368;-54
2022/09/24 00:56:47;;;;;;;4.15;1.85;;;;;;;25.48;46.76;101067.06;5112629;28;20019;-52
2022/09/24 00:59:16;;;;;;;3.35;2.05;;;;;;;25.21;46.86;101076.03;5112130;28;20024;-49
2022/09/24 01:01:47;;;;;;;10.63;2.42;;;;;;;24.99;47.52;101076.59;5112268;28;20072;-52
2022/09/24 01:04:16;;;;;;;3.50;2.28;;;;;;;25.11;47.88;101077.00;5112340;28;20028;-50
2022/09/24 01:06:42;;;;;;;3.92;2.20;;;;;;;24.84;48.04;101074.88;5111928;28;20035;-51
2022/09/24 01:09:09;;;;;;;5.60;2.42;;;;;;;24.88;48.44;101070.47;5112017;28;20532;-51
2022/09/24 01:11:56;;;;;;;4.93;2.25;;;;;;;24.58;49.45;101077.16;5112271;28;20015;-51
2022/09/24 01:14:38;;;;;;;5.40;2.20;;;;;;;24.49;50.09;101084.41;5111934;28;20023;-50
2022/09/24 01:17:13;;;;;;;7.53;2.53;;;;;;;24.32;50.27;101079.41;5111683;28;20508;-50
2022/09/24 01:19:55;;;;;;;8.20;2.75;;;;;;;24.50;50.25;101083.31;5111535;28;20518;-52
2022/09/24 01:22:38;;;;;;;8.40;2.72;;;;;;;24.66;50.13;101087.47;5091141;28;20557;-51
2022/09/24 01:25:19;;;;;;;8.48;2.40;;;;;;;24.39;50.85;101082.63;5083744;28;20372;-50
2022/09/24 01:28:19;;;;;;;4.22;2.15;;;;;;;24.58;50.31;101090.03;5089211;28;20468;-52
2022/09/24 01:30:49;;;;;;;3.33;2.08;;;;;;;24.57;50.05;101091.16;5090965;28;20138;-50
2022/09/24 01:33:21;;;;;;;5.25;2.33;;;;;;;24.60;50.08;101088.66;5090023;28;20035;-51
2022/09/24 01:35:57;;;;;;;7.25;2.83;;;;;;;24.73;49.66;101082.44;5091065;28;20024;-49
2022/09/24 01:38:33;;;;;;;5.43;2.78;;;;;;;24.65;49.70;101090.47;5085628;28;20036;-48
2022/09/24 01:41:02;;;;;;;9.77;2.90;;;;;;;24.27;50.65;101084.13;5078867;28;20108;-51
2022/09/24 01:43:29;;;;;;;7.32;3.13;;;;;;;24.49;50.53;101093.44;5074614;28;20035;-48
2022/09/24 01:45:57;;;;;;;26.02;4.53;;;;;;;24.17;51.57;101090.50;5091040;28;20024;-50
2022/09/24 01:48:27;;;;;;;6.93;3.03;;;;;;;24.09;51.56;101089.22;5090353;28;20024;-52
2022/09/24 01:51:01;;;;;;;5.43;2.65;;;;;;;24.13;51.79;101089.44;5091171;28;20472;-48
2022/09/24 01:53:45;;;;;;;7.88;3.30;;;;;;;23.93;52.04;101093.22;5091697;28;20039;-49
2022/09/24 01:56:23;;;;;;;8.98;2.95;;;;;;;23.81;52.66;101092.78;5100058;28;20042;-48
2022/09/24 01:58:57;;;;;;;10.88;4.35;;;;;;;23.86;52.66;101096.28;5071051;28;20027;-50
2022/09/24 02:01:30;;;;;;;8.13;3.37;;;;;;;23.73;52.89;101096.16;5089429;28;20027;-50
2022/09/24 02:04:00;;;;;;;11.10;3.25;;;;;;;23.52;53.18;101090.84;5074425;28;20052;-51
2022/09/24 02:06:42;;;;;;;9.02;3.08;;;;;;;23.52;53.43;101096.31;5092255;28;20032;-51
2022/09/24 02:09:29;;;;;;;12.70;3.25;;;;;;;23.41;53.64;101094.75;5094485;28;20101;-50
2022/09/24 02:11:59;;;;;;;9.93;3.35;;;;;;;23.41;53.38;101101.03;5094888;28;20020;-52
2022/09/24 02:14:30;;;;;;;6.85;3.13;;;;;;;23.26;53.85;101103.06;5094445;28;20038;-52
2022/09/24 02:16:58;;;;;;;8.68;3.28;;;;;;;23.01;54.77;101104.06;5093247;28;20052;-52
2022/09/24 02:19:27;;;;;;;9.30;3.70;;;;;;;22.99;55.04;101101.63;5094659;28;20052;-52
2022/09/24 02:21:54;;;;;;;10.25;4.07;;;;;;;22.82;55.45;101104.69;5094410;28;20427;-50
2022/09/24 02:24:27;;;;;;;10.32;3.38;;;;;;;22.75;55.44;101100.63;5093335;28;20119;-52
2022/09/24 02:26:54;;;;;;;11.60;3.83;;;;;;;22.65;55.74;101104.22;5094014;28;20028;-51
2022/09/24 02:29:20;;;;;;;7.43;3.50;;;;;;;22.44;56.16;101114.44;5094726;28;20078;-49
2022/09/24 02:31:51;;;;;;;5.78;3.05;;;;;;;22.69;55.56;101101.75;5093924;28;20034;-52
2022/09/24 02:34:24;;;;;;;7.20;3.17;;;;;;;22.38;56.56;101119.09;5093197;28;20498;-56
2022/09/24 02:36:58;;;;;;;9.65;3.25;;;;;;;22.17;56.99;101114.78;5086322;28;20021;-53
2022/09/24 02:39:25;;;;;;;11.20;4.00;;;;;;;22.47;56.20;101113.03;5073869;28;20021;-52
2022/09/24 02:41:52;;;;;;;11.55;3.65;;;;;;;22.50;55.96;101121.50;5073815;28;20099;-52
2022/09/24 02:44:19;;;;;;;8.57;3.30;;;;;;;22.46;55.81;101114.13;5092553;28;20112;-53
2022/09/24 02:46:46;;;;;;;11.07;3.85;;;;;;;22.35;55.60;101116.09;5092865;28;20061;-53
2022/09/24 02:49:13;;;;;;;6.47;3.53;;;;;;;22.25;55.84;101119.66;5093819;28;20024;-52
2022/09/24 02:51:40;;;;;;;9.43;3.22;;;;;;;22.28;55.69;101127.28;5084496;28;20020;-52
2022/09/24 02:54:07;;;;;;;6.18;3.30;;;;;;;22.14;55.50;101131.69;5087293;28;20536;-50
2022/09/24 02:56:33;;;;;;;10.48;3.33;;;;;;;22.12;55.58;101136.59;5093395;28;20026;-52
2022/09/24 02:59:01;;;;;;;6.85;3.47;;;;;;;22.14;55.62;101137.94;5093353;28;20032;-49
2022/09/24 03:01:32;;;;;;;7.00;3.50;;;;;;;22.14;55.75;101140.66;5093032;28;20039;-52
2022/09/24 03:03:58;;;;;;;7.95;3.38;;;;;;;22.08;55.74;101147.19;5100442;28;20392;-52
2022/09/24 03:06:25;;;;;;;9.40;3.30;;;;;;;21.86;56.76;101152.94;5091566;28;20506;-50
2022/09/24 03:08:54;;;;;;;5.72;2.88;;;;;;;21.87;56.90;101149.13;5092371;28;20480;-52
2022/09/24 03:11:21;;;;;;;7.97;3.47;;;;;;;21.94;56.82;101156.22;5093114;28;20052;-51
2022/09/24 03:13:48;;;;;;;10.23;3.65;;;;;;;21.80;57.63;101158.69;5093344;28;20465;-49
2022/09/24 03:16:16;;;;;;;9.43;3.58;;;;;;;21.82;57.65;101162.78;5093052;28;20027;-52
2022/09/24 03:18:42;;;;;;;10.63;4.10;;;;;;;21.84;57.44;101163.31;5093194;28;20028;-52
2022/09/24 03:21:11;;;;;;;9.77;4.35;;;;;;;21.99;57.19;101167.13;5091224;28;20044;-52
2022/09/24 03:23:38;;;;;;;8.43;3.63;;;;;;;21.81;57.88;101166.56;5093501;28;20035;-51
2022/09/24 03:26:04;;;;;;;7.90;3.97;;;;;;;21.89;57.33;101178.84;5092843;28;20473;-53
2022/09/24 03:28:31;;;;;;;9.23;3.72;;;;;;;21.83;57.30;101177.22;5092817;28;20151;-56
2022/09/24 03:31:00;;;;;;;8.07;3.63;;;;;;;21.65;58.22;101183.19;5092685;28;20032;-50
2022/09/24 03:33:34;;;;;;;6.95;3.50;;;;;;;21.55;58.72;101187.56;5093160;28;20032;-50
2022/09/24 03:36:15;;;;;;;6.90;3.90;;;;;;;21.71;58.03;101190.28;5093728;28;20473;-50
2022/09/24 03:38:44;;;;;;;11.57;3.70;;;;;;;21.71;58.18;101193.84;5073095;28;20067;-51
2022/09/24 03:41:12;;;;;;;8.43;3.63;;;;;;;21.41;59.56;101200.06;5072790;28;20027;-55
2022/09/24 03:43:38;;;;;;;11.25;4.30;;;;;;;21.47;59.03;101203.59;5072800;28;20028;-50
2022/09/24 03:46:06;;;;;;;7.75;3.72;;;;;;;21.34;59.66;101207.66;5074759;28;20035;-51
2022/09/24 03:48:37;;;;;;;9.50;4.25;;;;;;;21.52;59.27;101201.72;5092514;28;20096;-51
2022/09/24 03:51:12;;;;;;;11.25;4.00;;;;;;;21.65;58.79;101210.44;5091348;28;20028;-49
2022/09/24 03:53:39;;;;;;;8.88;3.88;;;;;;;21.57;58.87;101206.34;5082328;28;20465;-49
2022/09/24 03:56:10;;;;;;;8.85;3.90;;;;;;;21.53;59.09;101214.22;5090979;28;20028;-52
2022/09/24 03:58:38;;;;;;;8.00;3.50;;;;;;;21.57;59.36;101219.97;5092281;28;20031;-49
2022/09/24 04:01:06;;;;;;;12.50;3.50;;;;;;;21.57;59.13;101209.06;5092622;28;20028;-51
2022/09/24 04:03:33;;;;;;;8.45;3.65;;;;;;;21.52;59.81;101217.22;5092208;28;20061;-50
2022/09/24 04:05:59;;;;;;;8.57;3.70;;;;;;;21.33;60.32;101223.19;5091970;28;20027;-50
2022/09/24 04:08:25;;;;;;;12.63;4.28;;;;;;;21.35;59.96;101218.28;5091952;28;20028;-51
2022/09/24 04:10:52;;;;;;;13.85;3.90;;;;;;;21.23;60.84;101225.84;5092815;28;20097;-49
2022/09/24 04:13:19;;;;;;;10.93;3.67;;;;;;;21.38;60.46;101219.66;5092117;28;20480;-50
2022/09/24 04:15:45;;;;;;;11.93;3.72;;;;;;;21.38;60.60;101216.94;5091920;28;20035;-50
2022/09/24 04:18:11;;;;;;;9.70;3.65;;;;;;;21.29;60.89;101219.38;5090867;28;20024;-49
2022/09/24 04:20:38;;;;;;;7.07;3.85;;;;;;;21.18;61.13;101223.09;5091453;28;20096;-49
2022/09/24 04:23:04;;;;;;;8.95;3.67;;;;;;;21.15;61.11;101220.09;5092335;28;20084;-50
2022/09/24 04:25:32;;;;;;;6.97;3.80;;;;;;;21.15;61.29;101223.63;5092156;28;20024;-53
2022/09/24 04:28:00;;;;;;;8.00;3.83;;;;;;;21.14;61.15;101226.63;5091882;28;20407;-50
2022/09/24 04:30:28;;;;;;;8.70;4.07;;;;;;;21.08;61.11;101223.06;5091998;28;20024;-53
2022/09/24 04:32:55;;;;;;;8.50;3.80;;;;;;;20.91;61.59;101223.28;5091921;28;20028;-50
2022/09/24 04:35:23;;;;;;;13.70;4.18;;;;;;;20.96;61.82;101219.75;5092062;28;20020;-48
2022/09/24 04:37:49;;;;;;;9.27;3.65;;;;;;;20.87;62.06;101222.16;5091327;28;20035;-51
2022/09/24 04:40:16;;;;;;;7.22;4.00;;;;;;;20.83;62.17;101221.91;5091803;28;20024;-52
2022/09/24 04:42:45;;;;;;;8.57;4.15;;;;;;;20.73;62.41;101221.84;5089601;28;20039;-49
2022/09/24 04:45:13;;;;;;;9.73;4.18;;;;;;;20.65;62.42;101216.88;5101654;28;20031;-52
2022/09/24 04:47:39;;;;;;;10.73;4.40;;;;;;;20.73;62.68;101219.13;5105175;28;20020;-49
2022/09/24 04:50:10;;;;;;;8.20;4.15;;;;;;;20.70;62.68;101227.78;5091637;28;20052;-52
2022/09/24 04:52:37;;;;;;;11.27;4.47;;;;;;;20.59;62.90;101231.53;5082284;28;20420;-50
2022/09/24 04:55:04;;;;;;;8.15;4.00;;;;;;;20.61;63.39;101228.59;5071797;28;20052;-50
2022/09/24 04:57:35;;;;;;;7.22;3.97;;;;;;;20.55;63.05;101234.00;5071092;28;20025;-50
2022/09/24 05:00:08;;;;;;;7.68;4.43;;;;;;;20.59;63.45;101225.28;5079441;28;20475;-49
2022/09/24 05:02:34;;;;;;;8.55;3.75;;;;;;;20.48;63.77;101233.38;5091679;28;20036;-49
2022/09/24 05:05:00;;;;;;;9.85;4.30;;;;;;;20.48;63.87;101224.41;5090062;28;20361;-49
2022/09/24 05:07:27;;;;;;;9.30;3.95;;;;;;;20.41;63.90;101235.47;5090946;28;20107;-49
2022/09/24 05:09:53;;;;;;;7.85;3.30;;;;;;;20.36;64.43;101232.72;5106379;28;20127;-49
2022/09/24 05:12:20;;;;;;;14.68;5.25;;;;;;;20.22;64.96;101231.56;5110354;28;20077;-49
2022/09/24 05:14:46;;;;;;;7.70;3.90;;;;;;;20.24;65.20;101238.34;5110677;28;20026;-48
2022/09/24 05:17:12;;;;;;;8.60;4.95;;;;;;;20.15;65.01;101220.88;5090032;28;20028;-53
2022/09/24 05:19:38;;;;;;;12.00;4.60;;;;;;;20.11;65.29;101222.50;5091641;28;20058;-52
2022/09/24 05:22:05;;;;;;;10.30;4.15;;;;;;;20.19;65.33;101223.91;5091892;28;20028;-49
2022/09/24 05:24:31;;;;;;;6.50;3.40;;;;;;;20.09;65.57;101226.56;5091457;28;20027;-48
2022/09/24 05:27:09;;;;;;;8.70;4.07;;;;;;;19.96;65.88;101227.81;5090802;28;20076;-50
2022/09/24 05:29:37;;;;;;;9.00;4.10;;;;;;;19.92;65.72;101232.13;5089911;28;20481;-49
2022/09/24 05:32:11;;;;;;;9.45;4.50;;;;;;;19.84;66.07;101225.28;5108463;28;20027;-50
2022/09/24 05:34:37;;;;;;;10.90;4.65;;;;;;;19.73;66.15;101235.22;5094413;28;20439;-49
2022/09/24 05:37:05;;;;;;;7.22;4.50;;;;;;;19.69;66.02;101228.66;5090302;28;20047;-49
2022/09/24 05:39:31;;;;;;;11.18;5.05;;;;;;;19.62;67.00;101238.09;5094717;28;20071;-50
2022/09/24 05:41:57;;;;;;;10.45;4.20;;;;;;;19.69;66.51;101239.53;5095344;28;20530;-49
2022/09/24 05:44:24;;;;;;;7.68;3.83;;;;;;;19.64;66.22;101236.75;5094862;28;20021;-51
2022/09/24 05:46:51;;;;;;;9.57;3.92;;;;;;;19.59;66.05;101244.03;5094642;28;20157;-52
2022/09/24 05:49:18;;;;;;;10.40;4.43;;;;;;;19.51;66.38;101237.13;5095410;28;20186;-50
2022/09/24 05:51:46;;;;;;;8.02;3.95;;;;;;;19.57;66.08;101241.53;5092912;28;20111;-48
2022/09/24 05:54:12;;;;;;;10.43;4.97;;;;;;;19.49;66.27;101240.13;5092222;28;20028;-50
2022/09/24 05:56:38;;;;;;;9.07;4.63;;;;;;;19.49;66.57;101239.31;5094599;28;20145;-50
2022/09/24 05:59:04;;;;;;;10.63;4.60;;;;;;;19.48;66.19;101237.63;5094810;28;20099;-48
2022/09/24 06:01:31;;;;;;;12.38;4.82;;;;;;;19.40;67.04;101238.09;5094615;28;20020;-48
2022/09/24 06:03:58;;;;;;;9.88;5.13;;;;;;;19.37;66.76;101242.13;5095022;28;20030;-48
2022/09/24 06:06:27;;;;;;;9.63;4.50;;;;;;;19.31;66.99;101243.16;5092569;28;20035;-48
2022/09/24 06:08:54;;;;;;;10.18;4.07;;;;;;;19.29;67.37;101239.06;5074009;28;20331;-48
2022/09/24 06:11:21;;;;;;;11.85;4.22;;;;;;;19.30;67.01;101240.72;5073932;28;20484;-49
2022/09/24 06:13:49;;;;;;;7.65;4.63;;;;;;;19.05;68.91;101249.38;5089571;28;20037;-49
2022/09/24 06:16:16;;;;;;;6.65;3.97;;;;;;;19.03;68.43;101249.59;5114086;28;20032;-49
2022/09/24 06:18:43;;;;;;;10.70;4.10;;;;;;;19.10;68.49;101241.28;5114762;27;20043;-48
2022/09/24 06:21:12;;;;;;;10.27;4.60;;;;;;;18.97;68.62;101243.31;5113424;28;20059;-48
2022/09/24 06:23:41;;;;;;;9.57;4.32;;;;;;;19.04;68.87;101237.69;5114538;28;20502;-48
2022/09/24 06:26:11;;;;;;;8.63;4.20;;;;;;;18.92;69.43;101245.94;5114856;27;20373;-50
2022/09/24 06:28:38;;;;;;;11.77;4.72;;;;;;;18.95;69.55;101241.94;5114467;28;20443;-48
2022/09/24 06:31:05;;;;;;;11.20;5.13;;;;;;;18.83;70.44;101242.03;5108877;28;20683;-50
2022/09/24 06:33:32;;;;;;;9.48;5.30;;;;;;;18.55;71.10;101239.47;5094711;28;20097;-50
2022/09/24 06:36:03;;;;;;;14.13;4.68;;;;;;;18.76;71.00;101248.72;5114946;27;20103;-52
2022/09/24 06:38:30;;;;;;;10.98;4.55;;;;;;;18.71;71.32;101250.31;5114205;27;20049;-49
2022/09/24 06:41:01;;;;;;;10.60;4.28;;;;;;;18.66;71.27;101249.38;5114688;27;20027;-50
2022/09/24 06:43:27;;;;;;;15.63;5.00;;;;;;;18.72;71.40;101242.97;5113928;28;20024;-49
2022/09/24 06:45:55;;;;;;;10.00;4.65;;;;;;;18.57;71.73;101248.97;5113832;28;20024;-50
2022/09/24 06:48:21;;;;;;;12.45;5.55;;;;;;;18.64;71.55;101249.59;5114199;28;20031;-52
2022/09/24 06:50:48;;;;;;;14.75;5.72;;;;;;;18.41;72.31;101249.81;5114152;28;20036;-52
2022/09/24 06:53:14;;;;;;;13.25;5.20;;;;;;;18.57;71.99;101250.84;5084883;28;20031;-49
2022/09/24 06:55:41;;;;;;;15.70;5.18;;;;;;;18.42;72.84;101246.84;5073658;28;20028;-50
2022/09/24 06:58:18;;;;;;;14.38;5.20;;;;;;;18.14;73.54;101245.06;5073331;28;20032;-51
2022/09/24 07:00:52;;;;;;;14.32;5.65;;;;;;;18.30;72.61;101248.84;5073609;28;20074;-49
2022/09/24 07:03:19;;;;;;;11.77;4.80;;;;;;;18.43;71.90;101247.66;5076933;28;20358;-51
2022/09/24 07:05:45;;;;;;;8.80;4.32;;;;;;;18.48;71.41;101245.03;5093329;28;20028;-49
2022/09/24 07:08:11;;;;;;;9.75;4.47;;;;;;;18.33;71.88;101242.09;5093195;28;20108;-49
2022/09/24 07:10:45;;;;;;;12.57;5.00;;;;;;;18.34;71.37;101249.97;5093353;28;20472;-52
2022/09/24 07:13:13;;;;;;;15.65;4.90;;;;;;;18.43;71.32;101244.94;5093909;28;20024;-49
2022/09/24 07:15:40;;;;;;;12.25;4.50;;;;;;;18.32;72.09;101246.72;5093772;28;20476;-50
2022/09/24 07:18:07;;;;;;;11.27;4.38;;;;;;;18.20;72.25;101252.19;5093269;28;20039;-50
2022/09/24 07:20:35;;;;;;;11.88;4.40;;;;;;;18.29;72.14;101246.38;5093516;28;20078;-52
2022/09/24 07:23:04;;;;;;;13.25;4.78;;;;;;;18.17;72.27;101250.00;5093438;28;20052;-51
2022/09/24 07:25:31;;;;;;;10.20;4.68;;;;;;;18.08;72.86;101258.75;5093439;28;20418;-49
2022/09/24 07:28:02;;;;;;;13.43;4.68;;;;;;;17.84;73.84;101256.19;5096503;28;20047;-48
2022/09/24 07:30:28;;;;;;;13.77;4.65;;;;;;;18.08;73.33;101261.47;5097084;28;20031;-49
2022/09/24 07:32:56;;;;;;;13.82;4.18;;;;;;;17.88;73.26;101265.50;5092002;28;20028;-48
2022/09/24 07:35:23;;;;;;;13.50;5.10;;;;;;;17.93;72.87;101253.91;5092516;28;20031;-49
2022/09/24 07:37:56;;;;;;;9.73;4.30;;;;;;;17.78;74.00;101267.19;5076450;28;20026;-49
2022/09/24 07:40:23;;;;;;;12.38;5.20;;;;;;;17.86;73.34;101258.66;5092795;28;20494;-49
2022/09/24 07:42:49;;;;;;;9.52;4.28;;;;;;;17.83;73.10;101260.00;5092997;28;20020;-48
2022/09/24 07:45:18;;;;;;;8.27;4.15;;;;;;;17.97;72.42;101257.78;5091174;28;20024;-51
2022/09/24 07:47:44;;;;;;;11.98;4.50;;;;;;;17.81;72.72;101263.97;5092700;28;20111;-50
2022/09/24 07:50:12;;;;;;;10.27;4.28;;;;;;;17.80;72.03;101265.06;5092575;28;20035;-48
2022/09/24 07:52:39;;;;;;;11.82;4.63;;;;;;;17.78;71.60;101269.91;5092380;28;20036;-48
2022/09/24 07:55:06;;;;;;;10.75;4.28;;;;;;;17.73;71.57;101262.50;5096903;28;20027;-48
2022/09/24 07:57:32;;;;;;;11.63;4.03;;;;;;;17.73;71.83;101265.22;5094540;28;20028;-49
2022/09/24 07:59:58;;;;;;;7.80;3.95;;;;;;;17.69;71.50;101259.41;5092213;28;20030;-49
2022/09/24 08:02:24;;;;;;;27.85;4.57;;;;;;;17.68;71.50;101256.97;5103875;28;20031;-48
2022/09/24 08:04:50;;;;;;;9.52;3.75;;;;;;;17.62;71.09;101261.47;5091066;28;20024;-48
2022/09/24 08:07:17;;;;;;;4.55;2.80;;;;;;;17.12;67.40;101259.41;5090620;28;20023;-52
2022/09/24 08:09:43;;;;;;;5.85;2.60;;;;;;;17.30;66.42;101254.88;5092621;28;20184;-51
2022/09/24 08:12:09;;;;;;;4.07;2.50;;;;;;;17.39;65.71;101262.38;5097701;28;20368;-51
2022/09/24 08:14:36;;;;;;;3.78;2.00;;;;;;;17.42;64.95;101259.19;5104153;28;20092;-51
2022/09/24 08:17:02;;;;;;;3.20;2.10;;;;;;;17.46;63.12;101256.81;5096046;28;20516;-51
2022/09/24 08:19:29;;;;;;;5.53;1.58;;;;;;;17.33;62.10;101254.41;5092077;28;20048;-52
2022/09/24 08:21:56;;;;;;;3.53;1.63;;;;;;;17.31;60.91;101261.94;5091120;28;20504;-50
2022/09/24 08:24:22;;;;;;;1.77;1.35;;;;;;;17.27;60.29;101256.19;5092961;28;20028;-48
2022/09/24 08:26:49;;;;;;;1.73;1.33;;;;;;;17.23;59.98;101263.16;5106590;28;20035;-51
2022/09/24 08:29:15;;;;;;;3.08;1.35;;;;;;;17.20;59.44;101263.59;5104625;28;20024;-49
2022/09/24 08:31:41;;;;;;;2.78;1.40;;;;;;;17.17;59.47;101257.88;5093006;28;20024;-51
2022/09/24 08:34:08;;;;;;;1.50;1.38;;;;;;;17.10;58.49;101258.84;5091078;28;20020;-53
2022/09/24 08:36:34;;;;;;;2.58;1.20;;;;;;;16.87;58.12;101259.69;5092025;28;20031;-50
2022/09/24 08:39:00;;;;;;;2.08;1.30;;;;;;;16.92;58.22;101261.66;5092174;28;20024;-49
2022/09/24 08:41:46;;;;;;;2.17;1.10;;;;;;;16.87;58.24;101267.78;5092115;28;20032;-52
2022/09/24 08:47:43;;;;;;;2.08;1.05;;;;;;;16.88;58.35;101269.47;5091674;28;20097;-52
2022/09/24 08:50:18;;;;;;;1.65;1.33;;;;;;;16.82;58.68;101269.56;5090629;28;20116;-52
2022/09/24 08:53:02;;;;;;;;;;;;;;;16.75;58.56;101271.56;5089083;28;20020;-49
2022/09/24 08:55:36;;;;;;;2.58;1.50;;;;;;;16.66;58.25;101275.66;5111341;28;19926;-51
2022/09/24 08:58:17;;;;;;;1.90;1.50;;;;;;;16.66;58.50;101275.66;5108621;28;20024;-51
2022/09/24 09:00:48;;;;;;;2.95;1.33;;;;;;;16.58;58.63;101274.94;5106832;28;20027;-48
2022/09/24 09:03:55;;;;;;;2.33;1.38;;;;;;;16.53;58.96;101274.00;5075043;28;20031;-48
2022/09/24 09:07:00;;;;;;;2.88;1.30;;;;;;;16.56;58.90;101277.06;5107476;28;20032;-48
2022/09/24 09:09:40;;;;;;;1.67;1.02;;;;;;;16.46;59.29;101279.53;5112169;28;20054;-50
2022/09/24 09:12:13;;;;;;;4.88;1.20;;;;;;;16.42;58.95;101281.06;5113698;28;20040;-53
2022/09/24 09:15:05;;;;;;;2.78;1.63;;;;;;;16.40;58.80;101280.47;5113292;28;20035;-48
2022/09/24 09:18:03;;;;;;;2.30;1.23;;;;;;;16.40;58.36;101285.06;5109702;28;20084;-49
2022/09/24 09:20:40;;;;;;;1.65;1.20;;;;;;;16.31;57.77;101285.38;5099937;28;20492;-49
2022/09/24 09:23:16;;;;;;;3.08;1.27;;;;;;;16.25;57.74;101277.41;5098048;28;20028;-49
2022/09/24 09:25:50;;;;;;;;;;;;;;;16.26;57.63;101285.25;5113575;28;20031;-50
2022/09/24 09:28:16;;;;;;;2.50;1.13;;;;;;;16.14;57.05;101289.81;5112099;28;20352;-48
2022/09/24 09:31:08;;;;;;;1.38;1.10;;;;;;;16.08;57.13;101286.16;5100778;28;20590;-51
2022/09/24 09:34:17;;;;;;;3.15;1.40;;;;;;;16.13;56.89;101292.75;5100372;27;20510;-49
2022/09/24 09:37:21;;;;;;;1.85;1.17;;;;;;;16.12;57.01;101280.31;5097808;28;20063;-49
2022/09/24 09:40:09;;;;;;;2.72;1.13;;;;;;;16.14;56.42;101280.91;5113040;28;20031;-51
2022/09/24 09:42:39;;;;;;;1.55;1.10;;;;;;;16.08;56.74;101280.78;5082218;28;20032;-49
2022/09/24 09:45:31;;;;;;;1.70;1.20;;;;;;;16.06;56.70;101280.19;5113511;28;20549;-50
2022/09/24 09:47:59;;;;;;;4.78;1.35;;;;;;;15.96;56.80;101276.41;5112668;27;20061;-52
2022/09/24 09:50:43;;;;;;;2.10;1.10;;;;;;;15.58;58.07;101285.63;5094817;28;20248;-49
2022/09/24 09:53:20;;;;;;;2.38;1.20;;;;;;;15.49;58.87;101282.44;5096191;28;20038;-49
2022/09/24 09:55:55;;;;;;;4.63;1.30;;;;;;;15.70;58.12;101278.44;5104747;28;20028;-49
2022/09/24 09:58:32;;;;;;;1.75;1.10;;;;;;;15.72;58.37;101270.13;5084418;28;20039;-49
2022/09/24 10:01:17;;;;;;;3.03;1.10;;;;;;;15.76;58.20;101265.91;5103015;28;20032;-49
2022/09/24 10:03:43;;;;;;;1.88;1.30;;;;;;;15.82;58.24;101271.22;5082822;28;20030;-49
2022/09/24 10:06:24;;;;;;;3.40;1.20;;;;;;;15.83;58.17;101274.75;5101357;28;20051;-49
2022/09/24 10:08:50;;;;;;;1.23;0.93;;;;;;;15.81;58.14;101276.81;5102866;28;20431;-49
2022/09/24 10:11:18;;;;;;;3.05;1.20;;;;;;;15.85;57.85;101275.31;5100504;28;20058;-50
2022/09/24 10:13:45;;;;;;;2.75;1.50;;;;;;;15.84;58.03;101270.97;5082756;28;20032;-51
2022/09/24 10:16:16;;;;;;;1.70;1.00;;;;;;;15.87;57.82;101275.91;5083203;28;20028;-48
2022/09/24 10:18:48;;;;;;;1.45;1.10;;;;;;;15.83;57.52;101266.63;5076678;28;20037;-48
2022/09/24 10:21:35;;;;;;;1.95;1.10;;;;;;;15.82;57.91;101276.63;5083149;28;20127;-48
2022/09/24 10:24:11;;;;;;;1.63;1.10;;;;;;;15.86;58.00;101282.34;5101460;28;20380;-50
2022/09/24 10:26:41;;;;;;;3.45;1.30;;;;;;;15.83;58.09;101280.13;5080937;28;20031;-48
2022/09/24 10:32:21;;;;;;;1.52;1.08;;;;;;;15.79;58.13;101284.34;5087038;28;20031;-49
2022/09/24 10:34:59;;;;;;;1.52;1.13;;;;;;;15.81;58.10;101276.81;5114591;27;20043;-49
2022/09/24 10:37:26;;;;;;;3.30;1.45;;;;;;;15.77;58.14;101276.47;5099660;28;20423;-49
2022/09/24 10:40:09;;;;;;;2.47;1.00;;;;;;;15.73;58.34;101282.56;5093922;28;20103;-48
2022/09/24 10:42:36;;;;;;;3.35;1.20;;;;;;;15.69;58.10;101287.59;5077510;28;20505;-49
2022/09/24 10:45:03;;;;;;;2.08;1.10;;;;;;;15.70;57.96;101283.00;5100876;28;20364;-50
2022/09/24 10:47:49;;;;;;;1.20;1.10;;;;;;;15.70;58.30;101280.31;5108717;28;20056;-50
2022/09/24 10:50:44;;;;;;;1.45;1.17;;;;;;;15.67;58.43;101278.91;5101610;28;20028;-49
2022/09/24 10:53:28;;;;;;;1.23;1.13;;;;;;;15.62;58.84;101278.72;5092812;28;20533;-51
2022/09/24 10:56:06;;;;;;;2.95;1.27;;;;;;;15.62;58.90;101280.63;5114014;28;20256;-50
2022/09/24 10:59:17;;;;;;;2.10;1.20;;;;;;;15.57;59.24;101284.00;5111427;28;20023;-48
2022/09/24 11:02:00;;;;;;;3.17;1.08;;;;;;;15.61;58.81;101274.41;5084828;28;20035;-51
2022/09/24 11:05:02;;;;;;;2.22;1.33;;;;;;;15.61;59.11;101282.50;5105008;28;20034;-51
2022/09/24 11:08:03;;;;;;;3.80;1.30;;;;;;;15.66;59.08;101284.53;5101499;28;20043;-48
2022/09/24 11:10:57;;;;;;;2.17;1.38;;;;;;;15.61;59.35;101277.09;5024491;28;20045;-50
2022/09/24 11:13:23;;;;;;;2.13;1.10;;;;;;;15.62;59.01;101278.72;5093805;28;20086;-50
2022/09/24 11:16:07;;;;;;;2.20;1.67;;;;;;;15.66;59.04;101277.25;5103342;28;20299;-49
2022/09/24 11:18:37;;;;;;;1.85;1.20;;;;;;;15.57;59.38;101284.00;5099448;28;20046;-50
2022/09/24 11:21:12;;;;;;;1.48;1.23;;;;;;;15.57;59.44;101279.41;5113527;28;20373;-48
2022/09/24 11:23:38;;;;;;;1.40;1.10;;;;;;;15.59;59.39;101277.28;5097321;28;20075;-49
2022/09/24 11:26:31;;;;;;;3.67;1.67;;;;;;;15.58;59.72;101280.22;5091985;28;20035;-51
2022/09/24 11:29:15;;;;;;;5.50;1.90;;;;;;;15.57;59.44;101279.41;5090633;28;20032;-48
2022/09/24 11:32:03;;;;;;;2.92;1.40;;;;;;;15.56;59.56;101279.66;5105496;28;20035;-52
2022/09/24 11:34:41;;;;;;;1.80;1.08;;;;;;;15.55;59.34;101280.72;5105600;28;20035;-50
2022/09/24 11:37:43;;;;;;;2.15;1.35;;;;;;;15.57;59.53;101276.72;5107115;28;20056;-48
2022/09/24 11:41:03;;;;;;;1.55;1.10;;;;;;;15.56;59.71;101275.06;5096389;28;20384;-49
2022/09/24 11:43:53;;;;;;;2.60;1.42;;;;;;;15.59;59.95;101277.28;5025966;28;20111;-51
2022/09/24 11:47:04;;;;;;;2.05;1.50;;;;;;;15.51;60.12;101274.13;5110362;28;20027;-49
2022/09/24 11:49:51;;;;;;;2.92;1.33;;;;;;;15.53;59.84;101269.31;5108165;28;20031;-51
2022/09/24 11:52:32;;;;;;;1.48;1.17;;;;;;;15.48;59.99;101272.69;5094259;28;20103;-51
2022/09/24 11:55:24;;;;;;;2.97;1.70;;;;;;;15.47;60.35;101279.13;5104826;28;20031;-50
2022/09/24 11:58:19;;;;;;;1.60;1.35;;;;;;;15.46;60.28;101272.09;5090756;28;20579;-49